SWX weather

Shakawe Airport
Shakawe, North-West District, Botswana

Public forecast

Using degrees Celsius for public forecast. Weather courtesy of forecast.io.

Current aviation weather report (METAR) for Shakawe Airport

Report is more than 6 hours old.

Retrieved 2010/01/18 06:00 UTC (10 years ago):

FBSW 180600Z 05008KT 9999 TS FEW030 FEW035CB 29/16 Q////

Closest aviation forecast (TAF) to Shakawe Airport

Forecast is more than 12 hours old.

Closest forecast is Rundu Airport, 123.1 nm (228.0 km) WNW. Retrieved 2014/11/15 15:19 UTC (5 years ago):

TAF FYRU 151400Z 1515/1524 09008KT 8000 -TSRA SCT030CB BKN035TCU BECMG 1517/1519 9999 -SHRA FEW025CB BKN090